createdAt,value
2022-09-28T00:00:38.731Z,100.00
2022-09-28T00:03:47.067Z,100.00
2022-09-28T00:06:53.955Z,100.00
2022-09-28T00:09:59.209Z,100.00
2022-09-28T00:13:08.607Z,100.00
2022-09-28T00:16:20.673Z,100.00
2022-09-28T00:19:28.811Z,100.00
2022-09-28T00:22:40.320Z,100.00
2022-09-28T00:25:46.270Z,100.00
2022-09-28T00:28:57.350Z,100.00
2022-09-28T00:32:08.214Z,100.00
2022-09-28T00:35:15.249Z,100.00
2022-09-28T00:38:22.991Z,100.00
2022-09-28T00:41:31.374Z,100.00
2022-09-28T00:44:44.441Z,100.00
2022-09-28T00:48:00.185Z,100.00
2022-09-28T00:51:14.056Z,100.00
2022-09-28T00:54:20.239Z,100.00
2022-09-28T00:57:30.434Z,100.00
2022-09-28T01:00:37.593Z,100.00
2022-09-28T01:03:50.397Z,100.00
2022-09-28T01:07:02.002Z,98.56
2022-09-28T01:10:09.289Z,99.10
2022-09-28T01:13:20.014Z,96.18
2022-09-28T01:16:44.449Z,96.90
2022-09-28T01:20:32.571Z,97.51
2022-09-28T01:24:14.646Z,98.81
2022-09-28T01:27:32.260Z,99.45
2022-09-28T01:31:08.577Z,100.00
2022-09-28T01:34:26.226Z,100.00
2022-09-28T01:37:43.411Z,100.00
2022-09-28T01:40:54.326Z,100.00
2022-09-28T01:44:04.284Z,100.00
2022-09-28T01:47:15.852Z,100.00
2022-09-28T01:50:26.988Z,100.00
2022-09-28T01:53:46.586Z,100.00
2022-09-28T01:56:58.846Z,100.00
2022-09-28T02:00:12.378Z,100.00
2022-09-28T02:03:29.048Z,100.00
2022-09-28T02:06:48.564Z,98.16
2022-09-28T02:10:04.089Z,97.25
2022-09-28T02:13:20.312Z,95.78
2022-09-28T02:16:34.201Z,95.36
2022-09-28T02:19:42.753Z,96.43
2022-09-28T02:22:57.642Z,95.69
2022-09-28T02:26:13.125Z,97.00
2022-09-28T02:29:21.117Z,97.61
2022-09-28T02:32:32.605Z,97.18
2022-09-28T02:35:38.933Z,96.62
2022-09-28T02:38:47.678Z,96.42
2022-09-28T02:42:22.389Z,96.38
2022-09-28T02:46:01.334Z,96.60
2022-09-28T02:49:25.145Z,96.10
2022-09-28T02:53:04.888Z,97.16
2022-09-28T02:56:24.468Z,97.60
2022-09-28T02:59:47.998Z,96.91
2022-09-28T03:03:45.047Z,98.15
2022-09-28T03:07:10.991Z,98.20
2022-09-28T03:10:40.182Z,98.23
2022-09-28T03:13:47.767Z,99.66
2022-09-28T03:16:55.513Z,99.99
2022-09-28T03:20:03.810Z,100.00
2022-09-28T03:23:26.367Z,100.00
2022-09-28T03:26:35.045Z,100.00
2022-09-28T03:29:42.625Z,100.00
2022-09-28T03:32:57.594Z,100.00
2022-09-28T03:36:06.235Z,100.00
2022-09-28T03:39:15.424Z,100.00
2022-09-28T03:42:24.499Z,100.00
2022-09-28T03:45:34.667Z,100.00
2022-09-28T03:48:43.509Z,100.00
2022-09-28T03:51:52.852Z,100.00
2022-09-28T03:55:00.269Z,100.00
2022-09-28T03:58:06.568Z,100.00
2022-09-28T04:01:17.253Z,100.00
2022-09-28T04:04:26.047Z,100.00
2022-09-28T04:07:35.017Z,100.00
2022-09-28T04:10:43.763Z,99.98
2022-09-28T04:13:54.339Z,99.59
2022-09-28T04:17:03.415Z,99.23
2022-09-28T04:20:10.442Z,99.97
2022-09-28T04:23:17.946Z,99.04
2022-09-28T04:26:25.515Z,98.00
2022-09-28T04:29:31.811Z,99.27
2022-09-28T04:32:37.748Z,99.71
2022-09-28T04:35:42.072Z,99.81
2022-09-28T04:38:53.191Z,100.00
2022-09-28T04:42:02.332Z,100.00
2022-09-28T04:45:09.358Z,100.00
2022-09-28T04:48:15.541Z,100.00
2022-09-28T04:51:19.687Z,100.00
2022-09-28T04:54:25.203Z,100.00
2022-09-28T04:57:29.882Z,100.00
2022-09-28T05:00:37.684Z,100.00
2022-09-28T05:03:41.964Z,100.00
2022-09-28T05:06:47.517Z,100.00
2022-09-28T05:09:52.328Z,100.00
2022-09-28T05:12:58.582Z,100.00
2022-09-28T05:16:05.445Z,100.00
2022-09-28T05:19:12.447Z,100.00
2022-09-28T05:22:17.272Z,100.00
2022-09-28T05:25:22.334Z,100.00
2022-09-28T05:28:31.905Z,100.00
2022-09-28T05:31:43.724Z,100.00
2022-09-28T05:34:47.838Z,100.00
2022-09-28T05:37:52.756Z,100.00
2022-09-28T05:40:57.217Z,100.00
2022-09-28T05:44:02.952Z,100.00
2022-09-28T05:47:07.283Z,100.00
2022-09-28T05:50:12.212Z,99.53
2022-09-28T05:53:15.837Z,100.00
2022-09-28T05:56:20.000Z,100.00
2022-09-28T05:59:24.416Z,100.00
2022-09-28T06:02:28.055Z,100.00
2022-09-28T06:05:34.718Z,100.00
2022-09-28T06:08:38.156Z,97.69
2022-09-28T06:11:43.118Z,97.51
2022-09-28T06:14:47.659Z,96.49
2022-09-28T06:18:01.265Z,94.92
2022-09-28T06:21:08.396Z,94.31
2022-09-28T06:24:11.897Z,94.38
2022-09-28T06:27:16.674Z,95.70
2022-09-28T06:30:22.053Z,94.91
2022-09-28T06:33:26.709Z,93.88
2022-09-28T06:36:31.730Z,94.24
2022-09-28T06:39:35.782Z,92.86
2022-09-28T06:42:40.315Z,91.54
2022-09-28T06:45:53.381Z,92.64
2022-09-28T06:48:57.731Z,92.44
2022-09-28T06:52:03.004Z,89.06
2022-09-28T06:55:08.337Z,87.22
2022-09-28T06:58:17.436Z,87.97
2022-09-28T07:01:21.434Z,88.05
2022-09-28T07:04:26.516Z,90.04
2022-09-28T07:07:31.808Z,87.24
2022-09-28T07:10:34.841Z,83.32
2022-09-28T07:13:56.246Z,77.82
2022-09-28T07:17:13.060Z,81.08
2022-09-28T07:20:19.804Z,72.25
2022-09-28T07:23:26.727Z,66.66
2022-09-28T07:26:35.779Z,62.75
2022-09-28T07:29:39.238Z,58.93
2022-09-28T07:32:43.646Z,54.39
2022-09-28T07:35:55.620Z,46.47
2022-09-28T07:39:03.482Z,45.78
2022-09-28T07:42:07.507Z,43.93
2022-09-28T07:45:11.926Z,44.20
2022-09-28T07:48:17.073Z,44.19
2022-09-28T07:51:23.508Z,41.79
2022-09-28T07:54:27.536Z,40.17
2022-09-28T07:57:33.225Z,41.20
2022-09-28T08:00:38.134Z,46.01
2022-09-28T08:03:48.516Z,41.56
2022-09-28T08:06:51.382Z,40.75
2022-09-28T08:09:55.761Z,38.90
2022-09-28T08:13:04.791Z,39.22
2022-09-28T08:16:11.617Z,39.45
2022-09-28T08:19:14.758Z,39.83
2022-09-28T08:22:21.004Z,40.59
2022-09-28T08:25:25.487Z,44.77
2022-09-28T08:28:29.515Z,50.42
2022-09-28T08:31:33.083Z,48.65
2022-09-28T08:34:39.076Z,44.81
2022-09-28T08:37:45.869Z,46.78
2022-09-28T08:41:33.723Z,48.69
2022-09-28T08:44:45.888Z,52.32
2022-09-28T08:48:15.495Z,56.01
2022-09-28T08:51:32.219Z,58.16
2022-09-28T08:54:44.431Z,64.21
2022-09-28T08:58:01.784Z,65.65
2022-09-28T09:01:16.945Z,67.23
2022-09-28T09:04:21.199Z,68.16
2022-09-28T09:07:56.855Z,69.72
2022-09-28T09:11:19.105Z,69.07
2022-09-28T09:14:54.699Z,70.83
2022-09-28T09:18:23.539Z,71.09
2022-09-28T09:21:51.521Z,70.66
2022-09-28T09:25:07.433Z,71.27
2022-09-28T09:28:47.588Z,70.87
2022-09-28T09:32:04.807Z,70.92
2022-09-28T09:35:24.660Z,73.98
2022-09-28T09:38:42.254Z,73.59
2022-09-28T09:41:51.949Z,71.04
2022-09-28T09:45:00.698Z,71.10
2022-09-28T09:48:31.965Z,73.42
2022-09-28T09:51:48.956Z,70.24
2022-09-28T09:55:02.514Z,69.15
2022-09-28T09:58:14.786Z,70.65
2022-09-28T10:01:23.809Z,68.13
2022-09-28T10:04:41.403Z,65.51
2022-09-28T10:07:55.453Z,66.12
2022-09-28T10:11:12.817Z,65.55
2022-09-28T10:14:20.883Z,65.30
2022-09-28T10:17:27.514Z,63.44
2022-09-28T10:20:40.322Z,62.37
2022-09-28T10:23:45.552Z,63.93
2022-09-28T10:26:55.596Z,63.68
2022-09-28T10:30:02.557Z,61.14
2022-09-28T10:33:07.505Z,62.87
2022-09-28T10:36:11.835Z,62.04
2022-09-28T10:39:37.129Z,61.69
2022-09-28T10:42:41.309Z,61.06
2022-09-28T10:45:45.289Z,63.43
2022-09-28T10:48:54.601Z,62.03
2022-09-28T10:51:58.839Z,59.65
2022-09-28T10:55:04.606Z,51.45
2022-09-28T10:58:25.634Z,46.29
2022-09-28T11:01:33.976Z,44.28
2022-09-28T11:04:41.501Z,44.40
2022-09-28T11:07:48.069Z,46.00
2022-09-28T11:11:11.934Z,40.50
2022-09-28T11:14:25.615Z,43.83
2022-09-28T11:17:51.350Z,50.35
2022-09-28T11:21:14.727Z,51.66
2022-09-28T11:24:25.532Z,50.43
2022-09-28T11:27:29.984Z,43.24
2022-09-28T11:31:00.523Z,39.65
2022-09-28T11:34:14.475Z,33.73
2022-09-28T11:37:24.195Z,37.04
2022-09-28T11:40:53.603Z,39.65
2022-09-28T11:44:32.504Z,37.69
2022-09-28T11:47:47.571Z,36.49
2022-09-28T11:51:04.750Z,33.13
2022-09-28T11:54:29.097Z,33.86
2022-09-28T11:57:42.410Z,32.03
2022-09-28T12:00:52.391Z,30.07
2022-09-28T12:04:04.603Z,30.76
2022-09-28T12:07:16.639Z,30.30
2022-09-28T12:10:40.249Z,31.11
2022-09-28T12:13:53.297Z,32.09
2022-09-28T12:17:24.085Z,34.84
2022-09-28T12:20:32.639Z,32.12
2022-09-28T12:23:39.630Z,34.38
2022-09-28T12:26:49.191Z,28.43
2022-09-28T12:30:04.690Z,29.35
2022-09-28T12:33:12.745Z,34.30
2022-09-28T12:36:42.148Z,34.05
2022-09-28T12:39:59.818Z,34.37
2022-09-28T12:43:11.244Z,37.32
2022-09-28T12:46:56.675Z,40.29
2022-09-28T12:50:51.248Z,40.36
2022-09-28T12:54:19.841Z,37.95
2022-09-28T12:57:36.812Z,43.58
2022-09-28T13:00:59.655Z,45.82
2022-09-28T13:04:45.278Z,41.58
2022-09-28T13:08:19.405Z,42.94
2022-09-28T13:11:41.364Z,45.05
2022-09-28T13:14:51.382Z,49.70
2022-09-28T13:18:04.429Z,52.33
2022-09-28T13:21:19.118Z,52.52
2022-09-28T13:24:35.675Z,51.39
2022-09-28T13:27:45.655Z,51.48
2022-09-28T13:30:52.427Z,51.98
2022-09-28T13:33:59.365Z,51.68
2022-09-28T13:37:24.599Z,53.38
2022-09-28T13:41:06.317Z,51.09
2022-09-28T13:44:27.069Z,48.12
2022-09-28T13:47:49.597Z,50.05
2022-09-28T13:51:15.397Z,47.97
2022-09-28T13:54:41.388Z,47.21
2022-09-28T13:58:07.028Z,46.05
2022-09-28T14:01:18.841Z,48.17
2022-09-28T14:04:54.373Z,49.24
2022-09-28T14:08:21.973Z,50.54
2022-09-28T14:11:32.350Z,51.25
2022-09-28T14:14:51.930Z,53.00
2022-09-28T14:18:08.522Z,51.04
2022-09-28T14:21:46.235Z,49.66
2022-09-28T14:25:27.677Z,48.87
2022-09-28T14:28:50.722Z,50.68
2022-09-28T14:32:26.262Z,49.95
2022-09-28T14:35:42.496Z,50.97
2022-09-28T14:39:09.438Z,50.47
2022-09-28T14:42:19.388Z,51.05
2022-09-28T14:45:37.873Z,51.82
2022-09-28T14:49:02.163Z,51.54
2022-09-28T14:52:12.940Z,51.24
2022-09-28T14:55:24.218Z,51.55
2022-09-28T14:58:34.128Z,54.10
2022-09-28T15:01:40.708Z,54.63
2022-09-28T15:05:06.508Z,55.48
2022-09-28T15:08:14.064Z,55.57
2022-09-28T15:11:24.971Z,55.81
2022-09-28T15:14:36.831Z,56.59
2022-09-28T15:17:49.633Z,57.10
2022-09-28T15:20:56.983Z,57.86
2022-09-28T15:24:01.229Z,56.43
2022-09-28T15:27:16.340Z,57.45
2022-09-28T15:30:39.477Z,59.13
2022-09-28T15:34:04.651Z,57.06
2022-09-28T15:37:13.239Z,57.81
2022-09-28T15:40:31.274Z,58.75
2022-09-28T15:43:42.819Z,58.64
2022-09-28T15:46:49.576Z,58.34
2022-09-28T15:50:09.849Z,59.76
2022-09-28T15:53:20.235Z,60.67
2022-09-28T15:56:28.570Z,59.39
2022-09-28T15:59:42.905Z,61.47
2022-09-28T16:03:09.624Z,60.73
2022-09-28T16:06:16.399Z,60.64
2022-09-28T16:09:53.622Z,60.33
2022-09-28T16:13:14.877Z,63.20
2022-09-28T16:16:27.614Z,64.35
2022-09-28T16:19:39.303Z,63.01
2022-09-28T16:22:46.113Z,62.83
2022-09-28T16:26:01.566Z,63.70
2022-09-28T16:29:27.026Z,63.51
2022-09-28T16:33:02.764Z,66.13
2022-09-28T16:36:18.545Z,64.87
2022-09-28T16:39:26.503Z,66.49
2022-09-28T16:42:32.252Z,68.13
2022-09-28T16:45:40.546Z,66.46
2022-09-28T16:48:52.996Z,66.29
2022-09-28T16:51:58.400Z,67.48
2022-09-28T16:58:48.720Z,65.92
2022-09-28T17:01:58.616Z,66.43
2022-09-28T17:05:05.748Z,67.06
2022-09-28T17:08:18.155Z,67.09
2022-09-28T17:11:25.797Z,67.59
2022-09-28T17:14:33.574Z,65.44
2022-09-28T17:17:43.504Z,65.56
2022-09-28T17:20:53.157Z,65.68
2022-09-28T17:24:00.654Z,65.47
2022-09-28T17:27:17.143Z,67.64
2022-09-28T17:30:25.845Z,68.03
2022-09-28T17:33:32.001Z,69.91
2022-09-28T17:36:39.427Z,75.59
2022-09-28T17:39:48.176Z,79.73
2022-09-28T17:42:59.710Z,80.90
2022-09-28T17:46:12.483Z,89.07
2022-09-28T17:49:20.334Z,97.95
2022-09-28T17:52:28.430Z,100.00
2022-09-28T17:55:39.018Z,100.00
2022-09-28T17:58:48.866Z,100.00
2022-09-28T18:02:01.549Z,100.00
2022-09-28T18:05:11.879Z,100.00
2022-09-28T18:08:23.816Z,100.00
2022-09-28T18:11:30.723Z,100.00
2022-09-28T18:14:36.953Z,100.00
2022-09-28T18:17:45.801Z,100.00
2022-09-28T18:20:55.441Z,100.00
2022-09-28T18:24:00.796Z,100.00
2022-09-28T18:27:07.543Z,100.00
2022-09-28T18:30:12.288Z,100.00
2022-09-28T18:33:19.909Z,100.00
2022-09-28T18:36:33.808Z,100.00
2022-09-28T18:39:37.828Z,100.00
2022-09-28T18:42:42.843Z,100.00
2022-09-28T18:45:49.976Z,100.00
2022-09-28T18:48:57.404Z,100.00
2022-09-28T18:52:04.907Z,100.00
2022-09-28T18:55:14.326Z,100.00
2022-09-28T18:58:19.971Z,100.00
2022-09-28T19:01:31.395Z,100.00
2022-09-28T19:04:38.705Z,100.00
2022-09-28T19:07:45.959Z,100.00
2022-09-28T19:10:51.038Z,100.00
2022-09-28T19:13:59.051Z,100.00
2022-09-28T19:17:04.944Z,100.00
2022-09-28T19:20:12.837Z,100.00
2022-09-28T19:23:17.907Z,100.00
2022-09-28T19:26:27.805Z,100.00
2022-09-28T19:29:32.516Z,100.00
2022-09-28T19:32:40.061Z,100.00
2022-09-28T19:36:00.072Z,100.00
2022-09-28T19:39:15.151Z,100.00
2022-09-28T19:42:24.036Z,100.00
2022-09-28T19:45:33.304Z,100.00
2022-09-28T19:48:44.549Z,100.00
2022-09-28T19:55:15.472Z,100.00
2022-09-28T19:58:30.339Z,100.00
2022-09-28T20:01:36.707Z,100.00
2022-09-28T20:04:43.609Z,100.00
2022-09-28T20:07:48.659Z,100.00
2022-09-28T20:10:56.245Z,100.00
2022-09-28T20:14:03.594Z,100.00
2022-09-28T20:17:09.419Z,100.00
2022-09-28T20:20:13.609Z,100.00
2022-09-28T20:23:18.111Z,100.00
2022-09-28T20:26:22.761Z,100.00
2022-09-28T20:29:32.595Z,100.00
2022-09-28T20:32:38.309Z,100.00
2022-09-28T20:35:45.264Z,100.00
2022-09-28T20:38:54.037Z,100.00
2022-09-28T20:42:02.471Z,100.00
2022-09-28T20:45:13.331Z,100.00
2022-09-28T20:48:22.358Z,100.00
2022-09-28T20:51:31.378Z,100.00
2022-09-28T20:54:39.606Z,100.00
2022-09-28T20:57:47.768Z,100.00
2022-09-28T21:00:56.724Z,100.00
2022-09-28T21:04:06.027Z,100.00
2022-09-28T21:07:12.473Z,100.00
2022-09-28T21:10:18.902Z,100.00
2022-09-28T21:13:27.566Z,100.00
2022-09-28T21:16:37.590Z,100.00
2022-09-28T21:19:47.696Z,100.00
2022-09-28T21:22:53.045Z,100.00
2022-09-28T21:26:07.548Z,100.00
2022-09-28T21:29:15.578Z,100.00
2022-09-28T21:32:25.843Z,100.00
2022-09-28T21:35:35.400Z,100.00
2022-09-28T21:38:43.214Z,100.00
2022-09-28T21:41:50.258Z,100.00
2022-09-28T21:44:59.486Z,100.00
2022-09-28T21:48:07.126Z,100.00
2022-09-28T21:51:16.840Z,100.00
2022-09-28T21:54:29.447Z,100.00
2022-09-28T21:57:37.880Z,100.00
2022-09-28T22:00:46.363Z,100.00
2022-09-28T22:03:55.261Z,100.00
2022-09-28T22:07:01.910Z,100.00
2022-09-28T22:10:16.154Z,100.00
2022-09-28T22:13:25.482Z,100.00
2022-09-28T22:16:34.295Z,100.00
2022-09-28T22:19:43.840Z,100.00
2022-09-28T22:22:50.481Z,100.00
2022-09-28T22:26:00.111Z,100.00
2022-09-28T22:29:08.293Z,100.00
2022-09-28T22:32:14.019Z,100.00
2022-09-28T22:35:18.777Z,100.00
2022-09-28T22:38:36.379Z,100.00
2022-09-28T22:41:39.803Z,100.00
2022-09-28T22:44:45.553Z,100.00
2022-09-28T22:47:50.483Z,100.00
2022-09-28T22:50:57.533Z,100.00
2022-09-28T22:54:04.930Z,100.00
2022-09-28T22:57:10.864Z,100.00
2022-09-28T23:00:16.044Z,100.00
2022-09-28T23:03:21.907Z,100.00
2022-09-28T23:06:29.623Z,100.00
2022-09-28T23:09:37.195Z,100.00
2022-09-28T23:12:43.605Z,100.00
2022-09-28T23:16:03.086Z,100.00
2022-09-28T23:19:09.655Z,100.00
2022-09-28T23:22:14.865Z,100.00
2022-09-28T23:25:22.335Z,100.00
2022-09-28T23:28:30.100Z,100.00
2022-09-28T23:31:37.458Z,100.00
2022-09-28T23:34:44.021Z,100.00
2022-09-28T23:37:51.794Z,100.00
2022-09-28T23:40:55.567Z,100.00
2022-09-28T23:43:59.716Z,100.00
2022-09-28T23:47:04.535Z,100.00
2022-09-28T23:50:10.097Z,100.00
2022-09-28T23:53:15.708Z,100.00
2022-09-28T23:56:25.431Z,100.00
2022-09-28T23:59:33.532Z,100.00
